Sinclair, Wyoming
Current Conditions -  °F | °C
As of 12:53 AM on Friday 28 Nov 2014 (Local Time) from KRWL Reporting Station
Clear Clear  
Wind Chill: 35°   Ceiling: Unl
Heat Index: 41°   Visibility: 10mi
Dew Point: 19°   Wind: 10mph
Humidity: 41%   Direction: 210°SSW
Pressure: 30.1"   Gusts: 21mph
Location:  41.77°N, 107.11°W
Report Text: KRWL 280753Z AUTO 21009G18KT 10SM CLR 05/M07 A3010 RMK AO2 SLP156 T00501072
Loading
Personal Weather Stations






























Interactive Weather Map New forecast layout! Learn more

10-Day Weather Forecast

Advertisements
Track Severe Weather on mobile